sensor_id;sensor_type;location;lat;lon;timestamp;P1;durP1;ratioP1;P2;durP2;ratioP2
42200;SDS011;27869;51.442;7.540;2023-03-23T00:01:23;6.88;;;1.88;;
42200;SDS011;27869;51.442;7.540;2023-03-23T00:03:53;5.90;;;1.45;;
42200;SDS011;27869;51.442;7.540;2023-03-23T00:06:22;6.90;;;1.55;;
42200;SDS011;27869;51.442;7.540;2023-03-23T00:08:51;8.15;;;1.73;;
42200;SDS011;27869;51.442;7.540;2023-03-23T00:11:22;9.05;;;1.60;;
42200;SDS011;27869;51.442;7.540;2023-03-23T00:13:54;6.85;;;1.88;;
42200;SDS011;27869;51.442;7.540;2023-03-23T00:16:26;7.97;;;2.22;;
42200;SDS011;27869;51.442;7.540;2023-03-23T00:18:59;8.07;;;1.70;;
42200;SDS011;27869;51.442;7.540;2023-03-23T00:21:29;8.45;;;2.00;;
42200;SDS011;27869;51.442;7.540;2023-03-23T00:24:03;8.10;;;1.92;;
42200;SDS011;27869;51.442;7.540;2023-03-23T00:26:35;6.63;;;1.63;;
42200;SDS011;27869;51.442;7.540;2023-03-23T00:29:05;6.93;;;1.45;;
42200;SDS011;27869;51.442;7.540;2023-03-23T00:31:34;6.85;;;1.50;;
42200;SDS011;27869;51.442;7.540;2023-03-23T00:34:03;5.65;;;1.45;;
42200;SDS011;27869;51.442;7.540;2023-03-23T00:36:31;5.57;;;1.40;;
42200;SDS011;27869;51.442;7.540;2023-03-23T00:39:07;6.85;;;1.63;;
42200;SDS011;27869;51.442;7.540;2023-03-23T00:41:34;5.43;;;1.60;;
42200;SDS011;27869;51.442;7.540;2023-03-23T00:44:02;6.85;;;1.80;;
42200;SDS011;27869;51.442;7.540;2023-03-23T00:46:29;6.22;;;1.50;;
42200;SDS011;27869;51.442;7.540;2023-03-23T00:48:56;7.47;;;1.58;;
42200;SDS011;27869;51.442;7.540;2023-03-23T00:51:24;5.75;;;1.55;;
42200;SDS011;27869;51.442;7.540;2023-03-23T00:53:54;8.15;;;1.88;;
42200;SDS011;27869;51.442;7.540;2023-03-23T00:56:21;8.48;;;1.60;;
42200;SDS011;27869;51.442;7.540;2023-03-23T00:58:48;5.38;;;1.50;;
42200;SDS011;27869;51.442;7.540;2023-03-23T01:01:18;6.45;;;1.80;;
42200;SDS011;27869;51.442;7.540;2023-03-23T01:03:46;7.43;;;1.73;;
42200;SDS011;27869;51.442;7.540;2023-03-23T01:06:12;6.93;;;1.45;;
42200;SDS011;27869;51.442;7.540;2023-03-23T01:08:41;8.48;;;1.60;;
42200;SDS011;27869;51.442;7.540;2023-03-23T01:11:12;7.55;;;2.17;;
42200;SDS011;27869;51.442;7.540;2023-03-23T01:13:41;5.57;;;1.60;;
42200;SDS011;27869;51.442;7.540;2023-03-23T01:16:08;7.55;;;1.40;;
42200;SDS011;27869;51.442;7.540;2023-03-23T01:18:36;5.47;;;1.77;;
42200;SDS011;27869;51.442;7.540;2023-03-23T01:21:04;7.40;;;1.35;;
42200;SDS011;27869;51.442;7.540;2023-03-23T01:23:33;4.38;;;1.45;;
42200;SDS011;27869;51.442;7.540;2023-03-23T01:26:05;6.70;;;1.75;;
42200;SDS011;27869;51.442;7.540;2023-03-23T01:28:33;6.47;;;1.45;;
42200;SDS011;27869;51.442;7.540;2023-03-23T01:31:00;5.85;;;1.60;;
42200;SDS011;27869;51.442;7.540;2023-03-23T01:33:28;7.32;;;1.63;;
42200;SDS011;27869;51.442;7.540;2023-03-23T01:35:55;6.60;;;1.38;;
42200;SDS011;27869;51.442;7.540;2023-03-23T01:38:22;6.13;;;1.80;;
42200;SDS011;27869;51.442;7.540;2023-03-23T01:40:49;8.32;;;1.67;;
42200;SDS011;27869;51.442;7.540;2023-03-23T01:43:18;7.82;;;1.50;;
42200;SDS011;27869;51.442;7.540;2023-03-23T01:45:45;5.88;;;1.42;;
42200;SDS011;27869;51.442;7.540;2023-03-23T01:48:13;7.50;;;1.60;;
42200;SDS011;27869;51.442;7.540;2023-03-23T01:50:45;8.85;;;1.58;;
42200;SDS011;27869;51.442;7.540;2023-03-23T01:53:17;5.38;;;1.60;;
42200;SDS011;27869;51.442;7.540;2023-03-23T01:55:45;6.95;;;1.55;;
42200;SDS011;27869;51.442;7.540;2023-03-23T01:58:15;7.40;;;2.00;;
42200;SDS011;27869;51.442;7.540;2023-03-23T02:00:47;6.20;;;1.38;;
42200;SDS011;27869;51.442;7.540;2023-03-23T02:03:14;7.82;;;1.60;;
42200;SDS011;27869;51.442;7.540;2023-03-23T02:05:42;5.97;;;1.50;;
42200;SDS011;27869;51.442;7.540;2023-03-23T02:08:10;6.00;;;1.58;;
42200;SDS011;27869;51.442;7.540;2023-03-23T02:10:38;8.18;;;1.70;;
42200;SDS011;27869;51.442;7.540;2023-03-23T02:13:06;4.10;;;1.27;;
42200;SDS011;27869;51.442;7.540;2023-03-23T02:18:13;5.65;;;1.55;;
42200;SDS011;27869;51.442;7.540;2023-03-23T02:21:03;4.07;;;1.42;;
42200;SDS011;27869;51.442;7.540;2023-03-23T02:26:48;7.07;;;1.50;;
42200;SDS011;27869;51.442;7.540;2023-03-23T02:32:24;6.60;;;1.63;;
42200;SDS011;27869;51.442;7.540;2023-03-23T02:35:17;6.57;;;1.40;;
42200;SDS011;27869;51.442;7.540;2023-03-23T02:37:48;5.13;;;1.20;;
42200;SDS011;27869;51.442;7.540;2023-03-23T02:40:19;5.22;;;1.30;;
42200;SDS011;27869;51.442;7.540;2023-03-23T02:42:50;3.53;;;1.23;;
42200;SDS011;27869;51.442;7.540;2023-03-23T02:45:21;4.03;;;1.17;;
42200;SDS011;27869;51.442;7.540;2023-03-23T02:47:51;3.30;;;1.23;;
42200;SDS011;27869;51.442;7.540;2023-03-23T02:50:21;8.20;;;1.63;;
42200;SDS011;27869;51.442;7.540;2023-03-23T02:52:50;4.15;;;1.33;;
42200;SDS011;27869;51.442;7.540;2023-03-23T02:55:19;6.85;;;1.40;;
42200;SDS011;27869;51.442;7.540;2023-03-23T02:57:49;6.70;;;1.50;;
42200;SDS011;27869;51.442;7.540;2023-03-23T03:00:18;6.20;;;1.70;;
42200;SDS011;27869;51.442;7.540;2023-03-23T03:02:47;6.05;;;1.50;;
42200;SDS011;27869;51.442;7.540;2023-03-23T03:05:20;6.13;;;1.30;;
42200;SDS011;27869;51.442;7.540;2023-03-23T03:08:00;5.55;;;1.65;;
42200;SDS011;27869;51.442;7.540;2023-03-23T03:10:35;4.15;;;1.25;;
42200;SDS011;27869;51.442;7.540;2023-03-23T03:13:11;5.40;;;1.30;;
42200;SDS011;27869;51.442;7.540;2023-03-23T03:15:45;4.95;;;1.33;;
42200;SDS011;27869;51.442;7.540;2023-03-23T03:18:18;7.70;;;1.77;;
42200;SDS011;27869;51.442;7.540;2023-03-23T03:20:53;3.80;;;1.27;;
42200;SDS011;27869;51.442;7.540;2023-03-23T03:23:24;5.63;;;1.60;;
42200;SDS011;27869;51.442;7.540;2023-03-23T03:25:53;5.13;;;1.60;;
42200;SDS011;27869;51.442;7.540;2023-03-23T03:28:23;4.57;;;1.55;;
42200;SDS011;27869;51.442;7.540;2023-03-23T03:30:52;4.68;;;1.30;;
42200;SDS011;27869;51.442;7.540;2023-03-23T03:33:21;5.88;;;1.75;;
42200;SDS011;27869;51.442;7.540;2023-03-23T03:35:51;5.10;;;1.25;;
42200;SDS011;27869;51.442;7.540;2023-03-23T03:38:21;6.50;;;2.00;;
42200;SDS011;27869;51.442;7.540;2023-03-23T03:40:48;4.45;;;1.50;;
42200;SDS011;27869;51.442;7.540;2023-03-23T03:43:15;3.88;;;1.45;;
42200;SDS011;27869;51.442;7.540;2023-03-23T03:45:42;7.80;;;1.92;;
42200;SDS011;27869;51.442;7.540;2023-03-23T03:48:10;5.07;;;1.50;;
42200;SDS011;27869;51.442;7.540;2023-03-23T03:50:37;5.00;;;1.60;;
42200;SDS011;27869;51.442;7.540;2023-03-23T03:53:06;5.70;;;1.70;;
42200;SDS011;27869;51.442;7.540;2023-03-23T03:55:33;4.00;;;1.42;;
42200;SDS011;27869;51.442;7.540;2023-03-23T03:58:04;7.40;;;1.60;;
42200;SDS011;27869;51.442;7.540;2023-03-23T04:00:33;4.88;;;1.30;;
42200;SDS011;27869;51.442;7.540;2023-03-23T04:03:00;5.88;;;1.40;;
42200;SDS011;27869;51.442;7.540;2023-03-23T04:05:27;6.15;;;1.92;;
42200;SDS011;27869;51.442;7.540;2023-03-23T04:07:54;6.65;;;1.50;;
42200;SDS011;27869;51.442;7.540;2023-03-23T04:10:28;4.43;;;1.25;;
42200;SDS011;27869;51.442;7.540;2023-03-23T04:12:55;5.78;;;1.42;;
42200;SDS011;27869;51.442;7.540;2023-03-23T04:15:22;8.50;;;1.40;;
42200;SDS011;27869;51.442;7.540;2023-03-23T04:17:49;5.15;;;1.40;;
42200;SDS011;27869;51.442;7.540;2023-03-23T04:20:16;4.82;;;1.35;;
42200;SDS011;27869;51.442;7.540;2023-03-23T04:22:46;2.95;;;1.08;;
42200;SDS011;27869;51.442;7.540;2023-03-23T04:25:15;4.40;;;1.30;;
42200;SDS011;27869;51.442;7.540;2023-03-23T04:27:47;4.47;;;1.27;;
42200;SDS011;27869;51.442;7.540;2023-03-23T04:30:17;4.70;;;1.27;;
42200;SDS011;27869;51.442;7.540;2023-03-23T04:32:45;4.32;;;1.30;;
42200;SDS011;27869;51.442;7.540;2023-03-23T04:35:15;5.50;;;1.10;;
42200;SDS011;27869;51.442;7.540;2023-03-23T04:37:43;5.40;;;1.20;;
42200;SDS011;27869;51.442;7.540;2023-03-23T04:40:10;1.95;;;0.93;;
42200;SDS011;27869;51.442;7.540;2023-03-23T04:42:39;3.95;;;1.27;;
42200;SDS011;27869;51.442;7.540;2023-03-23T04:45:11;4.65;;;1.20;;
42200;SDS011;27869;51.442;7.540;2023-03-23T04:47:40;3.80;;;1.05;;
42200;SDS011;27869;51.442;7.540;2023-03-23T04:50:14;5.13;;;1.20;;
42200;SDS011;27869;51.442;7.540;2023-03-23T04:52:42;4.32;;;1.13;;
42200;SDS011;27869;51.442;7.540;2023-03-23T04:55:10;4.63;;;1.10;;
42200;SDS011;27869;51.442;7.540;2023-03-23T04:57:38;4.57;;;1.40;;
42200;SDS011;27869;51.442;7.540;2023-03-23T05:00:06;3.42;;;1.10;;
42200;SDS011;27869;51.442;7.540;2023-03-23T05:02:36;5.75;;;1.38;;
42200;SDS011;27869;51.442;7.540;2023-03-23T05:05:04;3.70;;;1.30;;
42200;SDS011;27869;51.442;7.540;2023-03-23T05:07:32;4.43;;;1.30;;
42200;SDS011;27869;51.442;7.540;2023-03-23T05:09:59;4.38;;;1.15;;
42200;SDS011;27869;51.442;7.540;2023-03-23T05:12:26;3.95;;;1.13;;
42200;SDS011;27869;51.442;7.540;2023-03-23T05:14:53;5.65;;;1.20;;
42200;SDS011;27869;51.442;7.540;2023-03-23T05:17:22;5.60;;;1.45;;
42200;SDS011;27869;51.442;7.540;2023-03-23T05:19:51;4.47;;;1.40;;
42200;SDS011;27869;51.442;7.540;2023-03-23T05:22:18;4.78;;;1.30;;
42200;SDS011;27869;51.442;7.540;2023-03-23T05:24:46;4.72;;;1.38;;
42200;SDS011;27869;51.442;7.540;2023-03-23T05:27:13;6.00;;;1.50;;
42200;SDS011;27869;51.442;7.540;2023-03-23T05:29:42;6.07;;;1.70;;
42200;SDS011;27869;51.442;7.540;2023-03-23T05:32:11;5.20;;;1.33;;
42200;SDS011;27869;51.442;7.540;2023-03-23T05:34:38;5.45;;;1.70;;
42200;SDS011;27869;51.442;7.540;2023-03-23T05:37:06;3.55;;;1.20;;
42200;SDS011;27869;51.442;7.540;2023-03-23T05:39:34;6.60;;;1.58;;
42200;SDS011;27869;51.442;7.540;2023-03-23T05:42:02;3.28;;;1.02;;
42200;SDS011;27869;51.442;7.540;2023-03-23T05:44:29;3.80;;;1.33;;
42200;SDS011;27869;51.442;7.540;2023-03-23T05:46:56;5.47;;;1.40;;
42200;SDS011;27869;51.442;7.540;2023-03-23T05:49:23;6.60;;;1.30;;
42200;SDS011;27869;51.442;7.540;2023-03-23T05:51:51;3.42;;;1.00;;
42200;SDS011;27869;51.442;7.540;2023-03-23T05:54:19;3.88;;;1.27;;
42200;SDS011;27869;51.442;7.540;2023-03-23T05:56:46;4.28;;;1.25;;
42200;SDS011;27869;51.442;7.540;2023-03-23T05:59:14;4.82;;;1.35;;
42200;SDS011;27869;51.442;7.540;2023-03-23T06:01:40;6.65;;;1.30;;
42200;SDS011;27869;51.442;7.540;2023-03-23T06:04:07;5.00;;;1.40;;
42200;SDS011;27869;51.442;7.540;2023-03-23T06:06:37;5.50;;;1.55;;
42200;SDS011;27869;51.442;7.540;2023-03-23T06:09:03;4.40;;;1.35;;
42200;SDS011;27869;51.442;7.540;2023-03-23T06:11:33;4.45;;;1.40;;
42200;SDS011;27869;51.442;7.540;2023-03-23T06:14:00;4.43;;;1.30;;
42200;SDS011;27869;51.442;7.540;2023-03-23T06:16:27;3.30;;;1.13;;
42200;SDS011;27869;51.442;7.540;2023-03-23T06:18:54;4.30;;;1.40;;
42200;SDS011;27869;51.442;7.540;2023-03-23T06:21:22;5.55;;;1.48;;
42200;SDS011;27869;51.442;7.540;2023-03-23T06:23:49;3.65;;;1.08;;
42200;SDS011;27869;51.442;7.540;2023-03-23T06:26:17;3.97;;;1.33;;
42200;SDS011;27869;51.442;7.540;2023-03-23T06:28:46;5.90;;;1.48;;
42200;SDS011;27869;51.442;7.540;2023-03-23T06:31:14;6.32;;;1.60;;
42200;SDS011;27869;51.442;7.540;2023-03-23T06:33:42;6.72;;;1.23;;
42200;SDS011;27869;51.442;7.540;2023-03-23T06:36:10;6.28;;;1.23;;
42200;SDS011;27869;51.442;7.540;2023-03-23T06:38:37;6.07;;;1.50;;
42200;SDS011;27869;51.442;7.540;2023-03-23T06:41:04;3.55;;;1.20;;
42200;SDS011;27869;51.442;7.540;2023-03-23T06:43:31;5.53;;;1.52;;
42200;SDS011;27869;51.442;7.540;2023-03-23T06:46:00;6.50;;;1.40;;
42200;SDS011;27869;51.442;7.540;2023-03-23T06:48:26;8.00;;;1.52;;
42200;SDS011;27869;51.442;7.540;2023-03-23T06:50:53;4.05;;;1.27;;
42200;SDS011;27869;51.442;7.540;2023-03-23T06:53:22;5.68;;;1.60;;
42200;SDS011;27869;51.442;7.540;2023-03-23T06:55:51;5.40;;;1.25;;
42200;SDS011;27869;51.442;7.540;2023-03-23T06:58:18;8.85;;;1.58;;
42200;SDS011;27869;51.442;7.540;2023-03-23T07:00:46;5.38;;;1.38;;
42200;SDS011;27869;51.442;7.540;2023-03-23T07:03:14;4.97;;;1.42;;
42200;SDS011;27869;51.442;7.540;2023-03-23T07:05:41;7.50;;;1.48;;
42200;SDS011;27869;51.442;7.540;2023-03-23T07:08:08;7.50;;;1.92;;
42200;SDS011;27869;51.442;7.540;2023-03-23T07:10:34;9.73;;;2.25;;
42200;SDS011;27869;51.442;7.540;2023-03-23T07:13:02;5.13;;;1.30;;
42200;SDS011;27869;51.442;7.540;2023-03-23T07:15:29;8.23;;;1.60;;
42200;SDS011;27869;51.442;7.540;2023-03-23T07:17:56;12.70;;;3.42;;
42200;SDS011;27869;51.442;7.540;2023-03-23T07:20:24;7.07;;;1.67;;
42200;SDS011;27869;51.442;7.540;2023-03-23T07:22:53;10.48;;;2.60;;
42200;SDS011;27869;51.442;7.540;2023-03-23T07:25:20;8.80;;;1.60;;
42200;SDS011;27869;51.442;7.540;2023-03-23T07:27:47;9.50;;;1.60;;
42200;SDS011;27869;51.442;7.540;2023-03-23T07:30:13;9.25;;;2.35;;
42200;SDS011;27869;51.442;7.540;2023-03-23T07:32:41;7.00;;;1.80;;
42200;SDS011;27869;51.442;7.540;2023-03-23T07:35:08;11.90;;;2.38;;
42200;SDS011;27869;51.442;7.540;2023-03-23T07:37:37;7.78;;;1.38;;
42200;SDS011;27869;51.442;7.540;2023-03-23T07:40:04;8.88;;;1.88;;
42200;SDS011;27869;51.442;7.540;2023-03-23T07:42:39;8.68;;;1.60;;
42200;SDS011;27869;51.442;7.540;2023-03-23T07:45:08;6.25;;;1.60;;
42200;SDS011;27869;51.442;7.540;2023-03-23T07:47:36;5.97;;;1.30;;
42200;SDS011;27869;51.442;7.540;2023-03-23T07:50:03;6.38;;;1.40;;
42200;SDS011;27869;51.442;7.540;2023-03-23T07:52:31;7.60;;;1.55;;
42200;SDS011;27869;51.442;7.540;2023-03-23T07:54:59;7.00;;;1.40;;
42200;SDS011;27869;51.442;7.540;2023-03-23T07:57:28;8.40;;;1.65;;
42200;SDS011;27869;51.442;7.540;2023-03-23T07:59:55;5.60;;;1.30;;
42200;SDS011;27869;51.442;7.540;2023-03-23T08:02:22;9.10;;;1.73;;
42200;SDS011;27869;51.442;7.540;2023-03-23T08:04:49;11.10;;;2.10;;
42200;SDS011;27869;51.442;7.540;2023-03-23T08:07:16;18.40;;;3.85;;
42200;SDS011;27869;51.442;7.540;2023-03-23T08:09:44;28.25;;;8.38;;
42200;SDS011;27869;51.442;7.540;2023-03-23T08:12:12;7.72;;;1.65;;
42200;SDS011;27869;51.442;7.540;2023-03-23T08:14:39;8.00;;;1.38;;
42200;SDS011;27869;51.442;7.540;2023-03-23T08:17:06;6.97;;;1.20;;
42200;SDS011;27869;51.442;7.540;2023-03-23T08:19:34;6.45;;;1.50;;
42200;SDS011;27869;51.442;7.540;2023-03-23T08:22:01;5.95;;;1.30;;
42200;SDS011;27869;51.442;7.540;2023-03-23T08:24:29;6.55;;;1.33;;
42200;SDS011;27869;51.442;7.540;2023-03-23T08:26:57;7.72;;;2.00;;
42200;SDS011;27869;51.442;7.540;2023-03-23T08:29:26;6.00;;;1.45;;
42200;SDS011;27869;51.442;7.540;2023-03-23T08:31:53;8.48;;;2.08;;
42200;SDS011;27869;51.442;7.540;2023-03-23T08:34:20;7.05;;;1.45;;
42200;SDS011;27869;51.442;7.540;2023-03-23T08:36:47;6.85;;;1.65;;
42200;SDS011;27869;51.442;7.540;2023-03-23T08:39:16;6.10;;;1.20;;
42200;SDS011;27869;51.442;7.540;2023-03-23T08:41:44;6.60;;;2.00;;
42200;SDS011;27869;51.442;7.540;2023-03-23T08:44:11;6.07;;;1.30;;
42200;SDS011;27869;51.442;7.540;2023-03-23T08:46:39;6.47;;;1.48;;
42200;SDS011;27869;51.442;7.540;2023-03-23T08:49:07;7.68;;;1.50;;
42200;SDS011;27869;51.442;7.540;2023-03-23T08:51:34;4.30;;;1.10;;
42200;SDS011;27869;51.442;7.540;2023-03-23T08:54:02;6.05;;;1.42;;
42200;SDS011;27869;51.442;7.540;2023-03-23T08:56:29;5.55;;;1.65;;
42200;SDS011;27869;51.442;7.540;2023-03-23T08:58:56;5.43;;;1.25;;
42200;SDS011;27869;51.442;7.540;2023-03-23T09:01:23;4.85;;;1.13;;
42200;SDS011;27869;51.442;7.540;2023-03-23T09:03:53;6.43;;;1.30;;
42200;SDS011;27869;51.442;7.540;2023-03-23T09:06:20;7.28;;;1.13;;
42200;SDS011;27869;51.442;7.540;2023-03-23T09:08:47;9.30;;;1.40;;
42200;SDS011;27869;51.442;7.540;2023-03-23T09:11:15;7.50;;;1.30;;
42200;SDS011;27869;51.442;7.540;2023-03-23T09:13:42;6.13;;;1.40;;
42200;SDS011;27869;51.442;7.540;2023-03-23T09:16:09;6.18;;;1.27;;
42200;SDS011;27869;51.442;7.540;2023-03-23T09:18:36;4.43;;;1.13;;
42200;SDS011;27869;51.442;7.540;2023-03-23T09:21:04;4.65;;;0.95;;
42200;SDS011;27869;51.442;7.540;2023-03-23T09:23:33;8.05;;;1.35;;
42200;SDS011;27869;51.442;7.540;2023-03-23T09:26:00;6.93;;;1.48;;
42200;SDS011;27869;51.442;7.540;2023-03-23T09:28:28;9.90;;;1.70;;
42200;SDS011;27869;51.442;7.540;2023-03-23T09:30:57;7.50;;;1.48;;
42200;SDS011;27869;51.442;7.540;2023-03-23T09:33:24;7.35;;;1.75;;
42200;SDS011;27869;51.442;7.540;2023-03-23T09:35:52;8.30;;;1.58;;
42200;SDS011;27869;51.442;7.540;2023-03-23T09:38:20;6.28;;;1.38;;
42200;SDS011;27869;51.442;7.540;2023-03-23T09:40:48;11.52;;;1.55;;
42200;SDS011;27869;51.442;7.540;2023-03-23T09:43:22;9.25;;;1.70;;
42200;SDS011;27869;51.442;7.540;2023-03-23T09:46:02;6.00;;;1.23;;
42200;SDS011;27869;51.442;7.540;2023-03-23T09:48:41;7.45;;;1.20;;
42200;SDS011;27869;51.442;7.540;2023-03-23T09:51:17;7.22;;;1.52;;
42200;SDS011;27869;51.442;7.540;2023-03-23T09:53:53;10.75;;;1.67;;
42200;SDS011;27869;51.442;7.540;2023-03-23T09:56:22;7.20;;;1.60;;
42200;SDS011;27869;51.442;7.540;2023-03-23T09:58:53;9.75;;;1.50;;
42200;SDS011;27869;51.442;7.540;2023-03-23T10:01:24;7.93;;;1.80;;
42200;SDS011;27869;51.442;7.540;2023-03-23T10:03:55;11.25;;;1.88;;
42200;SDS011;27869;51.442;7.540;2023-03-23T10:06:27;8.00;;;1.38;;
42200;SDS011;27869;51.442;7.540;2023-03-23T10:08:56;6.35;;;1.55;;
42200;SDS011;27869;51.442;7.540;2023-03-23T10:11:28;6.25;;;1.23;;
42200;SDS011;27869;51.442;7.540;2023-03-23T10:14:07;10.93;;;1.52;;
42200;SDS011;27869;51.442;7.540;2023-03-23T10:16:44;6.50;;;1.23;;
42200;SDS011;27869;51.442;7.540;2023-03-23T10:19:20;8.43;;;1.75;;
42200;SDS011;27869;51.442;7.540;2023-03-23T10:21:55;9.23;;;1.70;;
42200;SDS011;27869;51.442;7.540;2023-03-23T10:24:29;7.15;;;1.35;;
42200;SDS011;27869;51.442;7.540;2023-03-23T10:27:03;7.50;;;1.20;;
42200;SDS011;27869;51.442;7.540;2023-03-23T10:29:40;12.77;;;1.65;;
42200;SDS011;27869;51.442;7.540;2023-03-23T10:32:11;9.65;;;1.50;;
42200;SDS011;27869;51.442;7.540;2023-03-23T10:34:41;12.98;;;2.00;;
42200;SDS011;27869;51.442;7.540;2023-03-23T10:37:12;5.50;;;1.30;;
42200;SDS011;27869;51.442;7.540;2023-03-23T10:39:44;10.05;;;1.95;;
42200;SDS011;27869;51.442;7.540;2023-03-23T10:42:21;8.45;;;1.88;;
42200;SDS011;27869;51.442;7.540;2023-03-23T10:47:16;11.70;;;1.60;;
42200;SDS011;27869;51.442;7.540;2023-03-23T10:49:45;5.53;;;1.30;;
42200;SDS011;27869;51.442;7.540;2023-03-23T10:52:21;7.28;;;1.50;;
42200;SDS011;27869;51.442;7.540;2023-03-23T10:54:56;9.55;;;1.40;;
42200;SDS011;27869;51.442;7.540;2023-03-23T10:57:28;10.02;;;1.55;;
42200;SDS011;27869;51.442;7.540;2023-03-23T10:59:59;11.43;;;1.77;;
42200;SDS011;27869;51.442;7.540;2023-03-23T11:02:36;7.68;;;1.40;;
42200;SDS011;27869;51.442;7.540;2023-03-23T11:05:09;7.63;;;1.50;;
42200;SDS011;27869;51.442;7.540;2023-03-23T11:07:47;6.53;;;1.15;;
42200;SDS011;27869;51.442;7.540;2023-03-23T11:10:26;6.60;;;1.17;;
42200;SDS011;27869;51.442;7.540;2023-03-23T11:12:59;3.90;;;1.10;;
42200;SDS011;27869;51.442;7.540;2023-03-23T11:15:30;4.20;;;1.10;;
42200;SDS011;27869;51.442;7.540;2023-03-23T11:18:00;4.88;;;1.10;;
42200;SDS011;27869;51.442;7.540;2023-03-23T11:23:00;6.22;;;1.80;;
42200;SDS011;27869;51.442;7.540;2023-03-23T11:25:39;9.85;;;1.90;;
42200;SDS011;27869;51.442;7.540;2023-03-23T11:28:18;7.85;;;2.10;;
42200;SDS011;27869;51.442;7.540;2023-03-23T11:30:47;9.00;;;2.25;;
42200;SDS011;27869;51.442;7.540;2023-03-23T11:33:15;6.82;;;2.05;;
42200;SDS011;27869;51.442;7.540;2023-03-23T11:35:43;7.10;;;2.03;;
42200;SDS011;27869;51.442;7.540;2023-03-23T11:38:15;9.68;;;2.25;;
42200;SDS011;27869;51.442;7.540;2023-03-23T11:40:48;7.93;;;2.00;;
42200;SDS011;27869;51.442;7.540;2023-03-23T11:43:18;7.43;;;2.13;;
42200;SDS011;27869;51.442;7.540;2023-03-23T11:45:47;7.65;;;2.17;;
42200;SDS011;27869;51.442;7.540;2023-03-23T11:48:19;6.28;;;1.70;;
42200;SDS011;27869;51.442;7.540;2023-03-23T11:50:53;8.63;;;2.45;;
42200;SDS011;27869;51.442;7.540;2023-03-23T11:53:24;9.85;;;2.25;;
42200;SDS011;27869;51.442;7.540;2023-03-23T11:56:05;6.80;;;2.25;;
42200;SDS011;27869;51.442;7.540;2023-03-23T11:58:37;8.43;;;2.10;;
42200;SDS011;27869;51.442;7.540;2023-03-23T12:01:05;6.78;;;1.80;;
42200;SDS011;27869;51.442;7.540;2023-03-23T12:06:40;5.80;;;1.50;;
42200;SDS011;27869;51.442;7.540;2023-03-23T12:09:18;4.75;;;1.52;;
42200;SDS011;27869;51.442;7.540;2023-03-23T12:11:58;5.15;;;1.42;;
42200;SDS011;27869;51.442;7.540;2023-03-23T12:14:37;7.53;;;2.08;;
42200;SDS011;27869;51.442;7.540;2023-03-23T12:17:15;6.20;;;1.45;;
42200;SDS011;27869;51.442;7.540;2023-03-23T12:20:03;3.83;;;1.30;;
42200;SDS011;27869;51.442;7.540;2023-03-23T12:22:44;3.58;;;1.10;;
42200;SDS011;27869;51.442;7.540;2023-03-23T12:28:21;5.30;;;1.00;;
42200;SDS011;27869;51.442;7.540;2023-03-23T12:31:00;4.60;;;0.82;;
42200;SDS011;27869;51.442;7.540;2023-03-23T12:33:38;3.92;;;0.75;;
42200;SDS011;27869;51.442;7.540;2023-03-23T12:36:15;3.40;;;0.80;;
42200;SDS011;27869;51.442;7.540;2023-03-23T12:39:00;1.88;;;0.65;;
42200;SDS011;27869;51.442;7.540;2023-03-23T12:41:45;3.30;;;0.80;;
42200;SDS011;27869;51.442;7.540;2023-03-23T12:44:17;4.03;;;0.90;;
42200;SDS011;27869;51.442;7.540;2023-03-23T12:47:03;1.90;;;0.70;;
42200;SDS011;27869;51.442;7.540;2023-03-23T12:49:48;2.60;;;0.73;;
42200;SDS011;27869;51.442;7.540;2023-03-23T12:52:20;3.97;;;1.30;;
42200;SDS011;27869;51.442;7.540;2023-03-23T12:54:50;5.82;;;1.23;;
42200;SDS011;27869;51.442;7.540;2023-03-23T12:57:24;7.10;;;1.50;;
42200;SDS011;27869;51.442;7.540;2023-03-23T12:59:58;5.90;;;1.40;;
42200;SDS011;27869;51.442;7.540;2023-03-23T13:02:39;6.90;;;1.70;;
42200;SDS011;27869;51.442;7.540;2023-03-23T13:05:10;5.03;;;1.50;;
42200;SDS011;27869;51.442;7.540;2023-03-23T13:07:55;5.05;;;1.20;;
42200;SDS011;27869;51.442;7.540;2023-03-23T13:10:26;6.88;;;1.70;;
42200;SDS011;27869;51.442;7.540;2023-03-23T13:12:58;6.18;;;1.50;;
42200;SDS011;27869;51.442;7.540;2023-03-23T13:15:29;5.80;;;1.60;;
42200;SDS011;27869;51.442;7.540;2023-03-23T13:18:04;5.32;;;1.48;;
42200;SDS011;27869;51.442;7.540;2023-03-23T13:20:40;8.07;;;2.28;;
42200;SDS011;27869;51.442;7.540;2023-03-23T13:23:15;6.50;;;1.92;;
42200;SDS011;27869;51.442;7.540;2023-03-23T13:25:54;5.43;;;1.70;;
42200;SDS011;27869;51.442;7.540;2023-03-23T13:28:23;6.70;;;1.83;;
42200;SDS011;27869;51.442;7.540;2023-03-23T13:30:58;5.00;;;1.70;;
42200;SDS011;27869;51.442;7.540;2023-03-23T13:33:30;5.07;;;1.67;;
42200;SDS011;27869;51.442;7.540;2023-03-23T13:36:03;6.30;;;1.38;;
42200;SDS011;27869;51.442;7.540;2023-03-23T13:38:34;4.28;;;1.35;;
42200;SDS011;27869;51.442;7.540;2023-03-23T13:41:05;5.25;;;1.30;;
42200;SDS011;27869;51.442;7.540;2023-03-23T13:43:35;5.18;;;1.13;;
42200;SDS011;27869;51.442;7.540;2023-03-23T13:46:09;3.70;;;1.48;;
42200;SDS011;27869;51.442;7.540;2023-03-23T13:48:40;3.78;;;1.20;;
42200;SDS011;27869;51.442;7.540;2023-03-23T13:54:05;3.55;;;1.25;;
42200;SDS011;27869;51.442;7.540;2023-03-23T13:56:41;11.13;;;3.10;;
42200;SDS011;27869;51.442;7.540;2023-03-23T13:59:12;7.00;;;1.83;;
42200;SDS011;27869;51.442;7.540;2023-03-23T14:01:42;5.80;;;1.88;;
42200;SDS011;27869;51.442;7.540;2023-03-23T14:04:10;7.97;;;2.20;;
42200;SDS011;27869;51.442;7.540;2023-03-23T14:06:40;5.68;;;2.00;;
42200;SDS011;27869;51.442;7.540;2023-03-23T14:09:11;7.80;;;2.53;;
42200;SDS011;27869;51.442;7.540;2023-03-23T14:11:45;8.43;;;2.60;;
42200;SDS011;27869;51.442;7.540;2023-03-23T14:14:18;8.88;;;2.53;;
42200;SDS011;27869;51.442;7.540;2023-03-23T14:16:52;8.57;;;2.38;;
42200;SDS011;27869;51.442;7.540;2023-03-23T14:19:21;10.23;;;2.90;;
42200;SDS011;27869;51.442;7.540;2023-03-23T14:21:51;9.30;;;3.03;;
42200;SDS011;27869;51.442;7.540;2023-03-23T14:24:20;11.52;;;3.25;;
42200;SDS011;27869;51.442;7.540;2023-03-23T14:26:50;11.88;;;3.40;;
42200;SDS011;27869;51.442;7.540;2023-03-23T14:29:18;11.07;;;3.72;;
42200;SDS011;27869;51.442;7.540;2023-03-23T14:31:49;11.10;;;3.50;;
42200;SDS011;27869;51.442;7.540;2023-03-23T14:34:21;11.23;;;4.03;;
42200;SDS011;27869;51.442;7.540;2023-03-23T14:36:51;11.98;;;3.42;;
42200;SDS011;27869;51.442;7.540;2023-03-23T14:39:20;11.40;;;3.70;;
42200;SDS011;27869;51.442;7.540;2023-03-23T14:41:50;10.57;;;3.83;;
42200;SDS011;27869;51.442;7.540;2023-03-23T14:44:21;12.32;;;3.78;;
42200;SDS011;27869;51.442;7.540;2023-03-23T14:46:50;11.88;;;3.97;;
42200;SDS011;27869;51.442;7.540;2023-03-23T14:49:27;13.70;;;3.83;;
42200;SDS011;27869;51.442;7.540;2023-03-23T14:51:56;10.70;;;3.90;;
42200;SDS011;27869;51.442;7.540;2023-03-23T14:54:28;13.85;;;4.40;;
42200;SDS011;27869;51.442;7.540;2023-03-23T14:57:02;12.55;;;4.13;;
42200;SDS011;27869;51.442;7.540;2023-03-23T14:59:35;11.70;;;4.15;;
42200;SDS011;27869;51.442;7.540;2023-03-23T15:02:02;15.13;;;5.05;;
42200;SDS011;27869;51.442;7.540;2023-03-23T15:04:31;13.68;;;4.50;;
42200;SDS011;27869;51.442;7.540;2023-03-23T15:06:58;12.15;;;3.95;;
42200;SDS011;27869;51.442;7.540;2023-03-23T15:09:29;13.63;;;3.50;;
42200;SDS011;27869;51.442;7.540;2023-03-23T15:11:57;10.90;;;3.70;;
42200;SDS011;27869;51.442;7.540;2023-03-23T15:14:26;12.23;;;3.22;;
42200;SDS011;27869;51.442;7.540;2023-03-23T15:16:55;10.15;;;3.13;;
42200;SDS011;27869;51.442;7.540;2023-03-23T15:19:24;8.13;;;2.00;;
42200;SDS011;27869;51.442;7.540;2023-03-23T15:21:56;6.85;;;2.00;;
42200;SDS011;27869;51.442;7.540;2023-03-23T15:24:31;10.27;;;2.17;;
42200;SDS011;27869;51.442;7.540;2023-03-23T15:27:03;7.45;;;1.50;;